Time;durP1;ratioP1;P1;durP2;ratioP2;P2;SDS_P1;SDS_P2;PMS_P1;PMS_P2;Temp;Humidity;BMP_temperature;BMP_pressure;BME280_temperature;BME280_humidity;BME280_pressure;Samples;Min_cycle;Max_cycle;Signal;HPM_P1;HPM_P2
2022/01/16 00:04:09;;;;;;;;;;;;;;;-2.02;97.30;101086.72;5050107;28;19917;-81
2022/01/16 00:06:35;;;;;;;;;;;;;;;-2.03;97.44;101076.19;5051554;28;20015;-81
2022/01/16 00:09:00;;;;;;;;;;;;;;;-2.09;97.48;101082.94;5030032;28;19960;-81
2022/01/16 00:11:27;;;;;;;;;;;;;;;-2.10;97.07;101094.94;5052147;28;19939;-81
2022/01/16 00:13:52;;;;;;;;;;;;;;;-2.13;96.32;101085.50;5035897;28;19916;-81
2022/01/16 00:16:18;;;;;;;;;;;;;;;-2.21;96.27;101085.53;5031675;28;20290;-81
2022/01/16 00:18:49;;;;;;;;;;;;;;;-2.21;96.99;101102.66;5038450;28;19964;-76
2022/01/16 00:21:22;;;;;;;;;;;;;;;-2.23;97.13;101104.91;5048895;28;20305;-76
2022/01/16 00:23:48;;;;;;;;;;;;;;;-2.30;98.33;101060.34;5031280;28;19927;-76
2022/01/16 00:26:13;;;;;;;;;;;;;;;-2.34;98.75;101076.47;5031420;28;19916;-76
2022/01/16 00:28:39;;;;;;;;;;;;;;;-2.39;98.10;101088.34;5049819;28;19925;-76
2022/01/16 00:31:04;;;;;;;;;;;;;;;-2.42;98.80;101078.09;5025522;28;19952;-76
2022/01/16 00:33:30;;;;;;;;;;;;;;;-2.40;97.99;101070.44;5044562;28;19948;-77
2022/01/16 00:35:55;;;;;;;;;;;;;;;-2.45;98.33;101081.47;5004393;28;20003;-77
2022/01/16 00:38:21;;;;;;;;;;;;;;;-2.46;99.07;101057.34;5034982;28;19956;-76
2022/01/16 00:40:46;;;;;;;;;;;;;;;-2.45;97.28;101027.13;5037741;28;20426;-77
2022/01/16 00:43:11;;;;;;;;;;;;;;;-2.50;97.13;101040.09;5037256;28;20455;-76
2022/01/16 00:45:37;;;;;;;;;;;;;;;-2.54;96.86;101044.56;5049725;28;19917;-77
2022/01/16 00:48:05;;;;;;;;;;;;;;;-2.58;97.02;101057.22;5046625;28;19940;-76
2022/01/16 00:50:31;;;;;;;;;;;;;;;-2.59;96.56;101063.78;5048016;28;19917;-76
2022/01/16 00:52:57;;;;;;;;;;;;;;;-2.65;96.40;101038.72;5050778;28;19923;-76
2022/01/16 00:55:22;;;;;;;;;;;;;;;-2.74;98.18;101046.06;5023562;28;19912;-77
2022/01/16 00:57:48;;;;;;;;;;;;;;;-2.76;98.52;101052.97;5039786;28;20290;-76
2022/01/16 01:00:13;;;;;;;;;;;;;;;-2.83;100.00;101046.09;5034201;28;19916;-77
2022/01/16 01:02:39;;;;;;;;;;;;;;;-2.77;99.34;101083.94;5045119;28;20011;-76
2022/01/16 01:05:04;;;;;;;;;;;;;;;-2.80;98.41;101093.53;5041751;28;20384;-77
2022/01/16 01:07:31;;;;;;;;;;;;;;;-2.80;98.08;101074.53;5045010;28;19967;-77
2022/01/16 01:09:56;;;;;;;;;;;;;;;-2.82;97.23;101101.19;5028414;28;19958;-77
2022/01/16 01:12:29;;;;;;;;;;;;;;;-2.90;98.90;101005.06;5051670;28;19955;-80
2022/01/16 01:15:08;;;;;;;;;;;;;;;-2.93;99.80;100951.44;5039945;28;19917;-80
2022/01/16 01:17:37;;;;;;;;;;;;;;;-2.94;98.48;100993.25;5051983;28;19916;-80
2022/01/16 01:20:04;;;;;;;;;;;;;;;-3.02;97.84;100996.78;5046995;28;19917;-80
2022/01/16 01:22:29;;;;;;;;;;;;;;;-3.04;98.32;100998.25;5033672;28;20367;-79
2022/01/16 01:24:55;;;;;;;;;;;;;;;-3.04;97.83;101003.69;5039390;28;19913;-80
2022/01/16 01:27:27;;;;;;;;;;;;;;;-3.07;98.01;101036.91;5045414;28;20015;-80
2022/01/16 01:29:59;;;;;;;;;;;;;;;-3.11;97.99;101053.00;5033909;28;19921;-80
2022/01/16 01:32:25;;;;;;;;;;;;;;;-3.15;97.63;101067.56;5040920;28;19924;-77
2022/01/16 01:34:51;;;;;;;;;;;;;;;-3.23;98.61;101063.69;5032900;28;20000;-76
2022/01/16 01:37:16;;;;;;;;;;;;;;;-3.23;98.26;101058.28;5034918;28;19917;-76
2022/01/16 01:39:41;;;;;;;;;;;;;;;-3.24;99.08;101075.69;5044737;28;20454;-76
2022/01/16 01:42:10;;;;;;;;;;;;;;;-3.28;99.99;101063.09;5041717;28;19920;-77
2022/01/16 01:52:48;;;;;;;;;;;;;;;-3.23;100.00;101042.00;5019436;28;20390;-77
2022/01/16 01:55:13;;;;;;;;;;;;;;;-3.27;100.00;101041.03;5052686;28;19923;-77
2022/01/16 01:57:38;;;;;;;;;;;;;;;-3.26;100.00;101036.41;5033820;28;19908;-77
2022/01/16 02:00:05;;;;;;;;;;;;;;;-3.30;100.00;101039.78;5037919;28;19921;-76
2022/01/16 02:02:40;;;;;;;;;;;;;;;-3.34;100.00;101051.59;5314287;22;20075;-80
2022/01/16 02:05:05;;;;;;;;;;;;;;;-3.33;100.00;101050.47;5013704;28;19920;-80
2022/01/16 02:07:30;;;;;;;;;;;;;;;-3.36;100.00;101059.25;5037038;28;19931;-81
2022/01/16 02:09:56;;;;;;;;;;;;;;;-3.30;100.00;101049.81;5031052;28;19919;-81
2022/01/16 02:12:22;;;;;;;;;;;;;;;-3.35;100.00;101042.63;5051492;28;20008;-81
2022/01/16 02:14:58;;;;;;;;;;;;;;;-3.32;100.00;101024.94;5051706;28;19923;-81
2022/01/16 02:35:57;;;;;;;;;;;;;;;-3.59;100.00;101025.25;5034035;28;20389;-81
2022/01/16 02:38:22;;;;;;;;;;;;;;;-3.56;100.00;101021.91;5051478;28;19924;-77
2022/01/16 02:40:49;;;;;;;;;;;;;;;-3.61;100.00;101005.78;5051417;28;19923;-76
2022/01/16 02:43:17;;;;;;;;;;;;;;;-3.57;100.00;101018.41;5030264;28;19928;-76
2022/01/16 02:45:47;;;;;;;;;;;;;;;-3.59;100.00;101019.81;5014550;28;19921;-77
2022/01/16 02:48:12;;;;;;;;;;;;;;;-3.57;100.00;101017.59;5039106;28;19917;-77
2022/01/16 02:50:37;;;;;;;;;;;;;;;-3.59;100.00;101019.81;5051385;28;19916;-77
2022/01/16 02:53:10;;;;;;;;;;;;;;;-3.62;100.00;101020.47;5051116;28;19924;-77
2022/01/16 02:55:40;;;;;;;;;;;;;;;-3.65;100.00;101004.84;5030559;28;20474;-76
2022/01/16 02:58:05;;;;;;;;;;;;;;;-3.66;100.00;101008.66;5048172;28;19917;-77
2022/01/16 03:00:31;;;;;;;;;;;;;;;-3.68;100.00;101011.69;5016737;28;19920;-76
2022/01/16 03:02:56;;;;;;;;;;;;;;;-3.69;100.00;100999.25;5033742;28;19940;-77
2022/01/16 03:05:22;;;;;;;;;;;;;;;-3.70;100.00;101004.97;5030449;28;20416;-77
2022/01/16 03:07:47;;;;;;;;;;;;;;;-3.74;100.00;101002.09;5031197;28;19939;-76
2022/01/16 03:12:55;;;;;;;;;;;;;;;-3.68;100.00;101002.75;5021303;28;19917;-76
2022/01/16 03:15:20;;;;;;;;;;;;;;;-3.68;100.00;101003.56;5031469;28;19964;-81
2022/01/16 03:23:02;;;;;;;;;;;;;;;-3.69;100.00;100991.13;5030900;28;20407;-81
2022/01/16 03:25:27;;;;;;;;;;;;;;;-3.68;100.00;100990.00;5031634;28;19917;-81
2022/01/16 03:27:52;;;;;;;;;;;;;;;-3.68;100.00;100983.78;5031128;28;19917;-80
2022/01/16 03:30:18;;;;;;;;;;;;;;;-3.70;100.00;100988.72;5031571;28;19921;-80
2022/01/16 03:32:43;;;;;;;;;;;;;;;-3.73;100.00;100981.22;5031221;28;20320;-80
2022/01/16 03:35:09;;;;;;;;;;;;;;;-3.76;100.00;100978.03;5031888;28;19916;-81
2022/01/16 03:37:34;;;;;;;;;;;;;;;-3.74;100.00;100985.03;5031125;28;19994;-82
2022/01/16 03:40:00;;;;;;;;;;;;;;;-3.76;100.00;100978.03;5031526;28;19974;-81
2022/01/16 03:42:29;;;;;;;;;;;;;;;-3.73;100.00;100978.50;5047769;28;20345;-81
2022/01/16 03:44:55;;;;;;;;;;;;;;;-3.72;100.00;100967.38;5052639;28;19920;-80
2022/01/16 03:47:20;;;;;;;;;;;;;;;-3.71;100.00;100973.56;5050696;28;19968;-80
2022/01/16 03:49:45;;;;;;;;;;;;;;;-3.74;100.00;100974.19;5030851;28;19917;-80
2022/01/16 03:52:11;;;;;;;;;;;;;;;-3.75;100.00;100973.41;5038738;28;20011;-80
2022/01/16 03:54:39;;;;;;;;;;;;;;;-3.71;100.00;100976.25;5031895;28;19964;-80
2022/01/16 03:57:04;;;;;;;;;;;;;;;-3.77;100.00;100975.66;5044726;28;19975;-81
2022/01/16 03:59:30;;;;;;;;;;;;;;;-3.81;100.00;100974.69;5027078;28;20345;-80
2022/01/16 04:01:55;;;;;;;;;;;;;;;-3.85;100.00;100977.22;5033548;28;19917;-80
2022/01/16 04:04:21;;;;;;;;;;;;;;;-3.86;100.00;100972.91;5038335;28;20011;-80
2022/01/16 04:06:46;;;;;;;;;;;;;;;-3.86;100.00;100964.78;5030939;28;20035;-79
2022/01/16 04:09:11;;;;;;;;;;;;;;;-3.84;100.00;100969.91;5043131;28;19917;-82
2022/01/16 04:11:44;;;;;;;;;;;;;;;-3.86;100.00;100967.50;5031541;28;20511;-82
2022/01/16 04:14:15;;;;;;;;;;;;;;;-3.87;100.00;100959.69;5031071;28;19940;-81
2022/01/16 04:16:41;;;;;;;;;;;;;;;-3.87;100.00;100974.03;5031036;28;20350;-82
2022/01/16 04:19:07;;;;;;;;;;;;;;;-3.85;100.00;100969.09;5030480;28;19917;-81
2022/01/16 04:21:33;;;;;;;;;;;;;;;-3.85;100.00;100958.25;5030063;28;19927;-81
2022/01/16 04:23:58;;;;;;;;;;;;;;;-3.80;100.00;100958.09;5030122;28;19917;-81
2022/01/16 04:26:25;;;;;;;;;;;;;;;-3.77;100.00;100959.38;5031316;28;19924;-82
2022/01/16 04:28:51;;;;;;;;;;;;;;;-3.78;100.00;100955.88;5030149;28;19924;-81
2022/01/16 04:31:16;;;;;;;;;;;;;;;-3.76;100.00;100956.31;5031372;28;19917;-81
2022/01/16 04:33:42;;;;;;;;;;;;;;;-3.73;100.00;100959.53;5034495;28;19951;-78
2022/01/16 04:36:08;;;;;;;;;;;;;;;-3.78;100.00;100964.00;5015428;28;20035;-78
2022/01/16 04:38:34;;;;;;;;;;;;;;;-3.80;100.00;100949.19;5033361;28;19920;-78
2022/01/16 04:43:53;;;;;;;;;;;;;;;-3.86;100.00;100940.41;5035752;28;20369;-75
2022/01/16 04:46:19;;;;;;;;;;;;;;;-3.83;100.00;100939.75;5028803;28;19968;-78
2022/01/16 04:48:45;;;;;;;;;;;;;;;-3.99;100.00;100908.81;5030867;28;20299;-78
2022/01/16 04:51:11;;;;;;;;;;;;;;;-3.86;100.00;100940.41;5033310;28;19949;-77
2022/01/16 04:53:36;;;;;;;;;;;;;;;-3.94;100.00;100938.47;5033644;28;20267;-81
2022/01/16 04:56:02;;;;;;;;;;;;;;;-3.90;100.00;100942.16;5033655;28;19939;-82
2022/01/16 04:58:27;;;;;;;;;;;;;;;-3.91;100.00;100948.69;5033595;28;19917;-81
2022/01/16 05:00:54;;;;;;;;;;;;;;;-3.96;100.00;100940.69;5032629;28;19920;-81
2022/01/16 05:03:20;;;;;;;;;;;;;;;-3.96;100.00;100937.22;5033260;28;20374;-81
2022/01/16 05:05:45;;;;;;;;;;;;;;;-3.94;100.00;100933.06;5033683;28;19924;-82
2022/01/16 05:08:11;;;;;;;;;;;;;;;-3.95;100.00;100934.16;5033525;28;19971;-82
2022/01/16 05:10:36;;;;;;;;;;;;;;;-3.95;100.00;100936.88;5033786;28;19925;-82
2022/01/16 05:13:27;;;;;;;;;;;;;;;-3.92;100.00;100925.38;5015936;28;20020;-81
2022/01/16 05:18:31;;;;;;;;;;;;;;;-3.86;100.00;100929.56;5033468;28;19932;-81
2022/01/16 05:20:57;;;;;;;;;;;;;;;-3.85;100.00;100931.16;5033509;28;20290;-82
2022/01/16 05:23:22;;;;;;;;;;;;;;;-3.82;100.00;100930.50;5032821;28;19956;-81
2022/01/16 05:25:48;;;;;;;;;;;;;;;-3.88;100.00;100931.78;5032911;28;20000;-82
2022/01/16 05:28:13;;;;;;;;;;;;;;;-3.93;100.00;100940.09;5032991;28;19917;-82
2022/01/16 05:30:38;;;;;;;;;;;;;;;-3.95;100.00;100939.59;5033156;28;20317;-82
2022/01/16 05:33:04;;;;;;;;;;;;;;;-3.96;100.00;100927.16;5015543;28;19952;-81
2022/01/16 05:35:29;;;;;;;;;;;;;;;-3.97;100.00;100932.91;5015577;28;19913;-81
2022/01/16 05:37:55;;;;;;;;;;;;;;;-3.97;100.00;100927.47;5015391;28;19941;-81
2022/01/16 05:40:20;;;;;;;;;;;;;;;-4.02;100.00;100931.13;5032882;28;19916;-82
2022/01/16 05:42:45;;;;;;;;;;;;;;;-4.03;100.00;100940.38;5014895;28;20354;-81
2022/01/16 05:45:11;;;;;;;;;;;;;;;-4.06;100.00;100935.59;5032248;28;19921;-81
2022/01/16 05:47:36;;;;;;;;;;;;;;;-4.05;100.00;100931.78;5033303;28;20312;-81
2022/01/16 05:50:01;;;;;;;;;;;;;;;-4.03;100.00;100934.97;5032488;28;20297;-82
2022/01/16 05:52:27;;;;;;;;;;;;;;;-4.05;100.00;100931.78;5032901;28;20014;-82
2022/01/16 05:54:52;;;;;;;;;;;;;;;-4.05;100.00;100937.19;5031919;28;20400;-82
2022/01/16 05:57:18;;;;;;;;;;;;;;;-4.09;100.00;100944.38;5033088;28;19924;-81
2022/01/16 05:59:43;;;;;;;;;;;;;;;-4.13;100.00;100948.03;5014923;28;19971;-81
2022/01/16 06:02:09;;;;;;;;;;;;;;;-4.15;100.00;100937.50;5013938;28;19917;-82
2022/01/16 06:04:34;;;;;;;;;;;;;;;-4.13;100.00;100929.88;5032308;28;19963;-81
2022/01/16 06:07:00;;;;;;;;;;;;;;;-4.10;100.00;100931.94;5032148;28;20004;-81
2022/01/16 06:09:26;;;;;;;;;;;;;;;-4.13;100.00;100935.28;5031808;28;19970;-81
2022/01/16 06:11:52;;;;;;;;;;;;;;;-4.15;100.00;100934.78;5031885;28;19928;-82
2022/01/16 06:14:17;;;;;;;;;;;;;;;-4.13;100.00;100939.91;5032503;28;19971;-82
2022/01/16 06:16:43;;;;;;;;;;;;;;;-4.14;100.00;100936.38;5032187;28;19921;-82
2022/01/16 06:19:08;;;;;;;;;;;;;;;-4.11;100.00;100930.31;5031073;28;19943;-82
2022/01/16 06:21:34;;;;;;;;;;;;;;;-4.07;100.00;100922.34;5029625;28;19967;-82
2022/01/16 06:23:59;;;;;;;;;;;;;;;-4.11;100.00;100924.91;5029947;28;19917;-82
2022/01/16 06:26:24;;;;;;;;;;;;;;;-4.00;100.00;100936.25;5013147;28;19917;-82
2022/01/16 06:28:50;;;;;;;;;;;;;;;-3.99;100.00;100933.22;5029401;28;19917;-82
2022/01/16 06:31:15;;;;;;;;;;;;;;;-3.98;100.00;100937.53;5029826;28;20531;-82
2022/01/16 06:33:41;;;;;;;;;;;;;;;-3.93;100.00;100942.78;5020295;28;19920;-82
2022/01/16 06:36:06;;;;;;;;;;;;;;;-3.89;100.00;100930.19;5032214;28;19913;-82
2022/01/16 06:38:31;;;;;;;;;;;;;;;-3.87;100.00;100938.78;5032311;28;19917;-82
2022/01/16 06:40:57;;;;;;;;;;;;;;;-3.85;100.00;100938.47;5031690;28;19917;-82
2022/01/16 06:43:22;;;;;;;;;;;;;;;-3.81;100.00;100944.88;5012912;28;19918;-82
2022/01/16 06:45:48;;;;;;;;;;;;;;;-3.81;100.00;100937.53;5025148;28;20376;-82
2022/01/16 06:48:13;;;;;;;;;;;;;;;-3.80;100.00;100933.69;5021123;28;19921;-80
2022/01/16 06:50:38;;;;;;;;;;;;;;;-3.77;100.00;100932.28;5001514;28;19917;-81
2022/01/16 06:53:04;;;;;;;;;;;;;;;-3.76;100.00;100926.50;5027069;28;20440;-81
2022/01/16 06:55:29;;;;;;;;;;;;;;;-3.68;100.00;100929.56;5019957;28;19921;-82
2022/01/16 06:57:54;;;;;;;;;;;;;;;-3.62;100.00;100928.25;5024679;28;19925;-81
2022/01/16 07:00:20;;;;;;;;;;;;;;;-3.57;100.00;100925.41;5014444;28;19932;-82
2022/01/16 07:02:45;;;;;;;;;;;;;;;-3.48;100.00;100916.13;5016390;28;19917;-81
2022/01/16 07:05:11;;;;;;;;;;;;;;;-3.35;100.00;100925.19;5028797;28;20383;-82
2022/01/16 07:07:36;;;;;;;;;;;;;;;-3.25;100.00;100919.44;5028762;28;20298;-81
2022/01/16 07:10:02;;;;;;;;;;;;;;;-3.11;100.00;100922.72;5026801;28;19917;-81
2022/01/16 07:12:27;;;;;;;;;;;;;;;-2.99;100.00;100925.56;5031061;28;19971;-82
2022/01/16 07:14:53;;;;;;;;;;;;;;;-2.97;100.00;100930.69;5023132;28;19978;-82
2022/01/16 07:17:18;;;;;;;;;;;;;;;-2.93;100.00;100929.72;5023027;28;20306;-81
2022/01/16 07:19:43;;;;;;;;;;;;;;;-2.94;100.00;100932.75;5024199;28;20362;-82
2022/01/16 07:22:09;;;;;;;;;;;;;;;-2.88;100.00;100931.44;5019146;28;20446;-81
2022/01/16 07:24:35;;;;;;;;;;;;;;;-2.83;100.00;100923.91;5010969;28;19917;-81
2022/01/16 07:27:00;;;;;;;;;;;;;;;-2.76;100.00;100923.41;5019308;28;19920;-81
2022/01/16 07:29:29;;;;;;;;;;;;;;;-2.58;100.00;100919.47;5024157;28;19917;-81
2022/01/16 07:31:55;;;;;;;;;;;;;;;-2.30;100.00;100919.81;5019908;28;19917;-81
2022/01/16 07:34:20;;;;;;;;;;;;;;;-2.14;100.00;100928.97;5025810;28;19924;-81
2022/01/16 07:36:45;;;;;;;;;;;;;;;-1.98;100.00;100927.25;5019450;28;19913;-82
2022/01/16 07:39:11;;;;;;;;;;;;;;;-1.90;100.00;100926.41;5022931;28;20388;-82
2022/01/16 07:41:36;;;;;;;;;;;;;;;-1.79;100.00;100932.25;5021292;28;19960;-81
2022/01/16 07:44:02;;;;;;;;;;;;;;;-1.75;100.00;100932.38;5022082;28;20334;-82
2022/01/16 07:46:27;;;;;;;;;;;;;;;-1.67;100.00;100934.22;5019888;28;19933;-82
2022/01/16 07:48:53;;;;;;;;;;;;;;;-1.53;100.00;100929.28;5022021;28;19983;-82
2022/01/16 07:51:18;;;;;;;;;;;;;;;-1.44;100.00;100930.81;5018936;28;19957;-83
2022/01/16 07:53:44;;;;;;;;;;;;;;;-1.31;100.00;100937.09;5024054;28;20660;-82
2022/01/16 07:56:09;;;;;;;;;;;;;;;-1.21;100.00;100944.81;4988760;28;19927;-83
2022/01/16 07:58:36;;;;;;;;;;;;;;;-1.16;100.00;100933.72;5002090;28;19920;-82
2022/01/16 08:01:02;;;;;;;;;;;;;;;-1.13;100.00;100933.03;5017127;28;20334;-83
2022/01/16 08:03:28;;;;;;;;;;;;;;;-1.11;100.00;100925.34;5019505;28;19921;-83
2022/01/16 08:05:53;;;;;;;;;;;;;;;-1.06;100.00;100925.16;5020649;28;20019;-83
2022/01/16 08:08:19;;;;;;;;;;;;;;;-1.05;100.00;100934.88;5006884;28;19917;-83
2022/01/16 08:10:44;;;;;;;;;;;;;;;-1.10;100.00;100940.56;5023776;28;20352;-83
2022/01/16 08:13:12;;;;;;;;;;;;;;;-1.06;100.00;100937.97;5026155;28;19921;-83
2022/01/16 08:15:38;;;;;;;;;;;;;;;-1.00;100.00;100937.41;5012006;28;20413;-84
2022/01/16 08:18:03;;;;;;;;;;;;;;;-0.96;100.00;100932.06;5021896;28;19918;-83
2022/01/16 08:20:28;;;;;;;;;;;;;;;-0.95;100.00;100937.19;5023151;28;20628;-84
2022/01/16 08:22:54;;;;;;;;;;;;;;;-0.97;100.00;100931.25;5004034;28;19926;-82
2022/01/16 08:25:20;;;;;;;;;;;;;;;-0.93;100.00;100926.72;5003867;28;19925;-83
2022/01/16 08:27:45;;;;;;;;;;;;;;;-0.93;100.00;100917.00;5003606;28;19928;-83
2022/01/16 08:30:11;;;;;;;;;;;;;;;-0.90;100.00;100924.47;5022991;28;19921;-84
2022/01/16 08:32:38;;;;;;;;;;;;;;;-0.84;100.00;100920.38;5023852;28;19924;-83
2022/01/16 08:35:04;;;;;;;;;;;;;;;-0.70;100.00;100920.88;5021490;28;20344;-83
2022/01/16 08:37:29;;;;;;;;;;;;;;;-0.65;100.00;100909.75;5024668;28;20019;-83
2022/01/16 08:39:55;;;;;;;;;;;;;;;-0.55;100.00;100912.00;5021844;28;19921;-83
2022/01/16 08:42:20;;;;;;;;;;;;;;;-0.44;100.00;100915.84;5024575;28;19920;-84
2022/01/16 08:44:46;;;;;;;;;;;;;;;-0.38;100.00;100906.31;5004293;28;20394;-84
2022/01/16 08:47:11;;;;;;;;;;;;;;;-0.36;100.00;100887.69;5005111;28;20298;-84
2022/01/16 08:49:37;;;;;;;;;;;;;;;-0.33;100.00;100900.66;5010051;28;21420;-84
2022/01/16 08:52:02;;;;;;;;;;;;;;;-0.22;100.00;100901.75;5029727;28;19924;-84
2022/01/16 08:54:28;;;;;;;;;;;;;;;-0.27;100.00;100879.38;5023627;28;19925;-84
2022/01/16 08:56:53;;;;;;;;;;;;;;;-0.11;100.00;100883.78;5027136;28;19930;-85
2022/01/16 08:59:19;;;;;;;;;;;;;;;-0.01;100.00;100879.78;5024386;28;19948;-85
2022/01/16 09:01:44;;;;;;;;;;;;;;;0.04;100.00;100876.03;5023511;28;20402;-84
2022/01/16 09:04:09;;;;;;;;;;;;;;;0.00;100.00;100884.13;5006695;28;20382;-84
2022/01/16 09:06:35;;;;;;;;;;;;;;;0.05;100.00;100883.84;5030637;28;20301;-83
2022/01/16 09:09:00;;;;;;;;;;;;;;;0.04;100.00;100879.56;5023127;28;19918;-84
2022/01/16 09:11:26;;;;;;;;;;;;;;;0.10;100.00;100888.28;5056716;28;19927;-84
2022/01/16 09:13:52;;;;;;;;;;;;;;;0.23;100.00;100892.56;5056695;28;19924;-85
2022/01/16 09:16:18;;;;;;;;;;;;;;;0.24;100.00;100875.06;5031146;28;20015;-84
2022/01/16 09:18:44;;;;;;;;;;;;;;;0.29;100.00;100870.13;5031031;28;19924;-85
2022/01/16 09:21:09;;;;;;;;;;;;;;;0.33;100.00;100871.00;5032775;28;19917;-85
2022/01/16 09:23:35;;;;;;;;;;;;;;;0.41;100.00;100863.81;5014461;28;19971;-83
2022/01/16 09:26:01;;;;;;;;;;;;;;;0.45;100.00;100865.50;5019463;28;20290;-84
2022/01/16 09:28:26;;;;;;;;;;;;;;;0.51;100.00;100868.78;5011071;28;19921;-84
2022/01/16 09:30:52;;;;;;;;;;;;;;;0.65;100.00;100869.16;5024801;28;19916;-86
2022/01/16 09:33:17;;;;;;;;;;;;;;;0.64;100.00;100858.59;5029643;28;20012;-85
2022/01/16 09:35:43;;;;;;;;;;;;;;;0.55;99.67;100864.22;5006858;28;20549;-85
2022/01/16 09:38:10;;;;;;;;;;;;;;;0.62;100.00;100856.19;5021890;28;19916;-85
2022/01/16 09:40:36;;;;;;;;;;;;;;;0.61;98.63;100860.06;5022878;28;19975;-84
2022/01/16 09:43:03;;;;;;;;;;;;;;;0.60;99.26;100858.50;5025522;28;20023;-85
2022/01/16 09:45:28;;;;;;;;;;;;;;;0.61;100.00;100860.06;5012001;28;19917;-84
2022/01/16 09:47:54;;;;;;;;;;;;;;;0.47;100.00;100848.78;5027184;28;19925;-84
2022/01/16 09:50:23;;;;;;;;;;;;;;;0.46;100.00;100847.19;5024153;28;19964;-86
2022/01/16 09:52:49;;;;;;;;;;;;;;;0.43;100.00;100843.22;5025877;28;19929;-85
2022/01/16 09:55:14;;;;;;;;;;;;;;;0.47;100.00;100846.84;5024773;28;19974;-85
2022/01/16 09:57:40;;;;;;;;;;;;;;;0.60;100.00;100853.03;5004996;28;19967;-86
2022/01/16 10:00:06;;;;;;;;;;;;;;;0.57;100.00;100842.78;5018562;28;19979;-85
2022/01/16 10:02:32;;;;;;;;;;;;;;;0.59;100.00;100845.19;5020250;28;20366;-85
2022/01/16 10:04:57;;;;;;;;;;;;;;;0.80;100.00;100830.16;5020978;28;19921;-85
2022/01/16 10:07:23;;;;;;;;;;;;;;;1.05;100.00;100825.31;5003463;28;20990;-85
2022/01/16 10:10:11;;;;;;;;;;;;;;;0.98;98.89;100829.78;5024136;28;19936;-84
2022/01/16 10:12:41;;;;;;;;;;;;;;;1.02;98.31;100836.91;5000790;28;20343;-85
2022/01/16 10:15:20;;;;;;;;;;;;;;;0.96;98.81;100815.69;5024382;28;19924;-85
2022/01/16 10:17:46;;;;;;;;;;;;;;;1.12;100.00;100809.06;5004476;28;19921;-85
2022/01/16 10:20:11;;;;;;;;;;;;;;;1.38;97.91;100805.75;5004331;28;19951;-85
2022/01/16 10:22:43;;;;;;;;;;;;;;;1.48;97.14;100813.41;5018646;28;19921;-85
2022/01/16 10:25:09;;;;;;;;;;;;;;;1.54;97.15;100814.69;5002616;28;19967;-85
2022/01/16 10:27:35;;;;;;;;;;;;;;;1.83;96.66;100816.91;5004422;28;20329;-82
2022/01/16 10:30:02;;;;;;;;;;;;;;;1.93;95.10;100804.59;5005885;28;20008;-85
2022/01/16 10:32:31;;;;;;;;;;;;;;;1.86;94.18;100802.50;5019713;28;20012;-84
2022/01/16 10:35:15;;;;;;;;;;;;;;;1.86;94.54;100799.75;4998896;28;20424;-85
2022/01/16 10:37:42;;;;;;;;;;;;;;;1.93;94.61;100787.41;5002685;28;19927;-86
2022/01/16 10:40:27;;;;;;;;;;;;;;;1.96;93.67;100790.19;5020419;28;19943;-84
2022/01/16 10:42:53;;;;;;;;;;;;;;;1.96;93.84;100773.00;5022639;28;19923;-85
2022/01/16 10:45:23;;;;;;;;;;;;;;;2.01;93.45;100765.28;5019916;28;19917;-85
2022/01/16 10:47:54;;;;;;;;;;;;;;;2.26;92.64;100779.44;5000783;28;19917;-86
2022/01/16 10:50:20;;;;;;;;;;;;;;;2.09;93.06;100769.75;5003414;28;19927;-85
2022/01/16 10:52:51;;;;;;;;;;;;;;;2.11;93.45;100766.63;5003824;28;20015;-85
2022/01/16 10:55:17;;;;;;;;;;;;;;;2.30;93.14;100764.69;5020283;28;20379;-84
2022/01/16 10:57:42;;;;;;;;;;;;;;;2.52;92.12;100757.59;4987516;28;19917;-85
2022/01/16 11:00:15;;;;;;;;;;;;;;;2.77;91.05;100756.09;5019643;28;19921;-85
2022/01/16 11:02:42;;;;;;;;;;;;;;;2.74;90.85;100748.59;5018485;28;19918;-85
2022/01/16 11:05:11;;;;;;;;;;;;;;;2.86;90.85;100749.56;5020822;28;19994;-85
2022/01/16 11:07:37;;;;;;;;;;;;;;;2.76;90.21;100740.78;5020224;28;20318;-84
2022/01/16 11:10:21;;;;;;;;;;;;;;;2.74;90.62;100745.06;5018877;28;19913;-85
2022/01/16 11:12:48;;;;;;;;;;;;;;;2.84;90.33;100741.69;5020570;28;19964;-85
2022/01/16 11:15:13;;;;;;;;;;;;;;;3.15;90.60;100735.94;5003383;28;20097;-87
2022/01/16 11:17:38;;;;;;;;;;;;;;;3.51;88.65;100731.72;5008261;28;19923;-85
2022/01/16 11:20:05;;;;;;;;;;;;;;;3.46;87.39;100725.75;5004536;28;19929;-85
2022/01/16 11:22:34;;;;;;;;;;;;;;;3.55;87.53;100723.53;5006338;28;20374;-85
2022/01/16 11:25:11;;;;;;;;;;;;;;;3.70;87.00;100720.56;5006171;28;19917;-86
2022/01/16 11:27:37;;;;;;;;;;;;;;;3.95;85.88;100720.84;5014989;28;19924;-86
2022/01/16 11:30:02;;;;;;;;;;;;;;;3.75;86.27;100712.03;5021573;28;20408;-85
2022/01/16 11:32:28;;;;;;;;;;;;;;;3.70;86.49;100720.56;5019575;28;19921;-85
2022/01/16 11:34:55;;;;;;;;;;;;;;;3.99;85.98;100715.41;5006265;28;20433;-86
2022/01/16 11:37:20;;;;;;;;;;;;;;;4.27;85.22;100699.22;5008320;28;19923;-86
2022/01/16 11:39:46;;;;;;;;;;;;;;;4.26;84.29;100691.34;5007099;28;19917;-85
2022/01/16 11:42:15;;;;;;;;;;;;;;;4.38;83.83;100693.81;5024101;28;19968;-85
2022/01/16 11:44:45;;;;;;;;;;;;;;;4.27;83.58;100682.75;5010863;28;19917;-86
2022/01/16 11:47:10;;;;;;;;;;;;;;;4.34;84.03;100676.50;5009551;28;19925;-86
2022/01/16 11:49:38;;;;;;;;;;;;;;;4.33;84.37;100678.47;5011673;28;19921;-84
2022/01/16 11:52:18;;;;;;;;;;;;;;;4.45;83.52;100669.94;4993418;28;20484;-86
2022/01/16 11:54:46;;;;;;;;;;;;;;;4.58;83.02;100671.22;5027010;28;19917;-85
2022/01/16 11:57:19;;;;;;;;;;;;;;;4.67;82.07;100668.16;5029335;28;19921;-85
2022/01/16 11:59:44;;;;;;;;;;;;;;;4.82;82.15;100671.78;5007437;28;20285;-85
2022/01/16 12:02:09;;;;;;;;;;;;;;;4.92;81.03;100663.63;5027528;28;19917;-85
2022/01/16 12:04:37;;;;;;;;;;;;;;;4.75;81.30;100661.53;5032979;28;20004;-85
2022/01/16 12:07:12;;;;;;;;;;;;;;;4.56;81.93;100662.59;5031978;28;21869;-85
2022/01/16 12:10:19;;;;;;;;;;;;;;;4.68;82.14;100658.75;5014922;28;19917;-86
2022/01/16 12:12:31;;;;;;;;;;;;;;;4.66;82.26;100667.34;5021497;28;19924;-86
2022/01/16 12:15:03;;;;;;;;;;;;;;;4.80;81.64;100654.88;5029695;28;19917;-86
2022/01/16 12:17:31;;;;;;;;;;;;;;;4.83;81.64;100654.13;5031987;28;20370;-86
2022/01/16 12:19:57;;;;;;;;;;;;;;;5.09;81.66;100656.63;5033132;28;20397;-85
2022/01/16 12:22:44;;;;;;;;;;;;;;;5.31;79.00;100654.75;5027176;28;19917;-85
2022/01/16 12:25:22;;;;;;;;;;;;;;;5.37;78.82;100645.78;5016387;28;19917;-87
2022/01/16 12:27:56;;;;;;;;;;;;;;;5.21;79.00;100642.56;5018990;28;19929;-87
2022/01/16 12:30:35;;;;;;;;;;;;;;;5.29;79.10;100646.13;5013789;28;19975;-87
2022/01/16 12:33:00;;;;;;;;;;;;;;;5.37;78.28;100650.47;5012507;28;19924;-78
2022/01/16 12:35:41;;;;;;;;;;;;;;;5.42;78.03;100648.13;5012597;28;20012;-78
2022/01/16 12:38:12;;;;;;;;;;;;;;;5.67;78.08;100644.66;5012783;28;20267;-78
2022/01/16 12:40:39;;;;;;;;;;;;;;;5.64;76.64;100638.78;5013844;28;19917;-78
2022/01/16 12:43:08;;;;;;;;;;;;;;;5.62;77.21;100634.84;5013655;28;20345;-78
2022/01/16 12:45:40;;;;;;;;;;;;;;;5.62;76.88;100632.88;5014231;28;19922;-77
2022/01/16 12:48:05;;;;;;;;;;;;;;;5.55;77.04;100630.09;4996572;28;19918;-78
2022/01/16 12:50:31;;;;;;;;;;;;;;;5.35;77.25;100631.59;5014172;28;20000;-77
2022/01/16 12:52:56;;;;;;;;;;;;;;;5.35;77.45;100628.84;5000088;28;20374;-77
2022/01/16 12:55:25;;;;;;;;;;;;;;;5.60;76.89;100631.69;5033739;28;20007;-78
2022/01/16 12:57:51;;;;;;;;;;;;;;;5.62;76.52;100627.34;5017385;28;20382;-78
2022/01/16 13:00:16;;;;;;;;;;;;;;;5.56;76.39;100615.16;5033163;28;20016;-78
2022/01/16 13:02:41;;;;;;;;;;;;;;;5.64;76.34;100622.28;5033501;28;19939;-78
2022/01/16 13:05:07;;;;;;;;;;;;;;;5.86;75.63;100612.13;5033335;28;20011;-78
2022/01/16 13:07:33;;;;;;;;;;;;;;;5.97;75.44;100614.88;5033806;28;19917;-77
2022/01/16 13:09:59;;;;;;;;;;;;;;;6.06;74.82;100605.06;5015872;28;19944;-78
2022/01/16 13:12:24;;;;;;;;;;;;;;;6.13;73.69;100609.78;5033416;28;20330;-78
2022/01/16 13:14:50;;;;;;;;;;;;;;;6.10;73.40;100605.06;5033347;28;20007;-78